Time;durP1;ratioP1;P1;durP2;ratioP2;P2;SDS_P1;SDS_P2;PMS_P1;PMS_P2;Temp;Humidity;BMP_temperature;BMP_pressure;BME280_temperature;BME280_humidity;BME280_pressure;Samples;Min_cycle;Max_cycle;Signal;HPM_P1;HPM_P2
2022/06/14 00:02:38;;;;;;;0.30;0.30;;;13.30;99.90;13.50;102199.00;;;;5115012;28;20192;-72
2022/06/14 00:05:05;;;;;;;0.30;0.30;;;13.30;99.90;13.60;102244.00;;;;5115027;28;20172;-72
2022/06/14 00:07:46;;;;;;;0.40;0.40;;;13.20;99.90;14.20;102262.00;;;;5115615;28;20189;-72
2022/06/14 00:10:21;;;;;;;0.40;0.40;;;13.50;99.90;13.70;102245.00;;;;5114331;28;20282;-72
2022/06/14 00:12:56;;;;;;;0.30;0.30;;;13.40;99.90;13.40;102250.00;;;;5115315;28;20212;-72
2022/06/14 00:15:24;;;;;;;0.30;0.30;;;13.20;99.90;13.70;102236.00;;;;5097951;28;20280;-72
2022/06/14 00:17:58;;;;;;;0.30;0.30;;;13.10;99.90;14.00;102247.00;;;;5097804;28;20176;-72
2022/06/14 00:20:32;;;;;;;0.30;0.30;;;13.30;99.90;13.90;102236.00;;;;5097762;28;20182;-72
2022/06/14 00:23:05;;;;;;;0.40;0.40;;;13.40;99.90;13.70;102248.00;;;;5114867;28;20181;-72
2022/06/14 00:25:45;;;;;;;0.40;0.40;;;13.20;99.90;13.70;102246.00;;;;5114673;28;20703;-72
2022/06/14 00:28:21;;;;;;;0.40;0.40;;;13.20;99.90;13.80;102249.00;;;;5116031;28;20176;-73
2022/06/14 00:30:55;;;;;;;0.30;0.30;;;13.10;99.90;13.70;102249.00;;;;5097292;28;20275;-72
2022/06/14 00:33:26;;;;;;;0.30;0.30;;;13.20;99.90;13.50;102242.00;;;;5114653;28;20200;-72
2022/06/14 00:36:39;;;;;;;0.30;0.30;;;13.10;99.90;13.70;102239.00;;;;5114614;28;20371;-72
2022/06/14 00:39:32;;;;;;;1.23;1.23;;;13.10;99.90;14.20;102241.00;;;;5103015;28;20538;-72
2022/06/14 00:42:21;;;;;;;0.30;0.30;;;13.50;99.90;13.60;102234.00;;;;5097579;28;20189;-72
2022/06/14 00:45:23;;;;;;;0.30;0.30;;;13.30;99.90;13.70;102196.00;;;;5114221;28;20540;-72
2022/06/14 00:48:19;;;;;;;0.40;0.40;;;13.30;99.90;13.10;102225.00;;;;5061024;28;20191;-72
2022/06/14 00:51:14;;;;;;;0.30;0.30;;;13.00;99.90;13.20;102215.00;;;;5097100;28;20638;-72
2022/06/14 00:54:08;;;;;;;0.30;0.30;;;12.80;99.90;13.50;102218.00;;;;5105079;28;20180;-72
2022/06/14 00:56:57;;;;;;;0.40;0.40;;;12.90;99.90;13.30;102203.00;;;;5096700;28;20297;-72
2022/06/14 01:00:39;;;;;;;0.40;0.40;;;12.80;99.90;13.20;102204.00;;;;5096987;28;20172;-72
2022/06/14 01:03:29;;;;;;;0.40;0.40;;;12.80;99.90;13.20;102179.00;;;;5017433;28;20199;-72
2022/06/14 01:06:20;;;;;;;0.40;0.40;;;12.70;99.90;13.40;102191.00;;;;5046577;28;20192;-72
2022/06/14 01:09:12;;;;;;;0.40;0.40;;;12.70;99.90;13.60;102204.00;;;;5096841;28;20207;-72
2022/06/14 01:12:10;;;;;;;0.30;0.30;;;12.90;99.90;13.30;102151.00;;;;5101421;28;20257;-72
2022/06/14 01:15:14;;;;;;;0.47;0.47;;;12.90;99.90;13.50;102199.00;;;;5104929;28;20184;-72
2022/06/14 01:18:12;;;;;;;0.40;0.40;;;13.00;99.90;12.90;102189.00;;;;5109132;28;20196;-72
2022/06/14 01:21:03;;;;;;;0.40;0.40;;;12.80;99.90;13.40;102180.00;;;;5096798;28;20184;-72
2022/06/14 01:23:40;;;;;;;0.40;0.40;;;12.80;99.90;13.20;102186.00;;;;5096449;28;20626;-72
2022/06/14 01:27:12;;;;;;;0.43;0.43;;;12.80;99.90;13.00;102191.00;;;;5096622;28;20182;-72
2022/06/14 01:30:11;;;;;;;0.40;0.40;;;12.60;99.90;13.20;102189.00;;;;5112598;28;20184;-72
2022/06/14 01:33:02;;;;;;;0.40;0.40;;;12.70;99.90;13.00;102176.00;;;;5113044;28;20705;-72
2022/06/14 01:35:35;;;;;;;0.40;0.40;;;12.60;99.90;12.60;102166.00;;;;5113475;28;20195;-72
2022/06/14 01:38:21;;;;;;;0.40;0.40;;;12.40;99.90;12.70;102174.00;;;;5096535;28;20190;-72
2022/06/14 01:41:33;;;;;;;0.40;0.40;;;12.30;99.90;13.00;102186.00;;;;5113180;28;20630;-72
2022/06/14 01:44:31;;;;;;;0.43;0.43;;;12.50;99.90;13.10;102188.00;;;;5112997;28;20183;-72
2022/06/14 01:47:18;;;;;;;0.50;0.50;;;12.50;99.90;13.10;102188.00;;;;5096205;28;20639;-72
2022/06/14 01:53:55;;;;;;;0.50;0.50;;;12.50;99.90;12.50;102174.00;;;;5114218;28;20556;-72
2022/06/14 01:56:31;;;;;;;0.50;0.50;;;12.30;99.90;12.60;102133.00;;;;5112972;28;20220;-72
2022/06/14 01:59:17;;;;;;;0.50;0.50;;;12.10;99.90;12.70;102174.00;;;;5114203;28;20201;-72
2022/06/14 02:01:57;;;;;;;0.50;0.50;;;12.20;99.90;12.70;102168.00;;;;5113127;28;20595;-72
2022/06/14 02:05:19;;;;;;;0.53;0.53;;;12.20;99.90;12.80;102137.00;;;;5112901;28;20183;-72
2022/06/14 02:07:51;;;;;;;0.50;0.50;;;12.40;99.90;12.80;102167.00;;;;4998303;28;20192;-73
2022/06/14 02:10:40;;;;;;;0.40;0.40;;;12.30;99.90;12.50;102164.00;;;;5014743;28;20214;-72
2022/06/14 02:14:07;;;;;;;0.40;0.40;;;12.30;99.90;12.40;102165.00;;;;5030705;28;20221;-72
2022/06/14 02:16:41;;;;;;;0.40;0.40;;;12.10;99.90;12.50;102115.00;;;;5000872;28;20278;-72
2022/06/14 02:19:37;;;;;;;0.40;0.40;;;12.10;99.90;12.50;102164.00;;;;5014471;28;20184;-72
2022/06/14 02:22:46;;;;;;;0.50;0.50;;;12.10;99.90;12.40;102164.00;;;;5031220;28;20193;-73
2022/06/14 02:25:14;;;;;;;0.40;0.40;;;12.20;99.90;12.30;102119.00;;;;4998481;28;20685;-72
2022/06/14 02:28:12;;;;;;;0.40;0.40;;;12.10;99.90;12.30;102147.00;;;;5014298;28;20187;-73
2022/06/14 02:31:07;;;;;;;0.50;0.50;;;12.00;99.90;12.40;102156.00;;;;4998109;28;20649;-72
2022/06/14 02:34:11;;;;;;;0.50;0.50;;;12.00;99.90;12.40;102151.00;;;;4997888;28;20701;-73
2022/06/14 02:37:26;;;;;;;0.40;0.40;;;12.00;99.90;12.60;102160.00;;;;5095792;28;20657;-73
2022/06/14 02:41:06;;;;;;;0.50;0.50;;;12.10;99.90;12.60;102144.00;;;;5080791;28;20191;-73
2022/06/14 02:43:41;;;;;;;0.50;0.50;;;12.10;99.90;12.50;102143.00;;;;5053815;28;20191;-73
2022/06/14 02:46:35;;;;;;;0.50;0.50;;;12.00;99.90;12.40;102150.00;;;;5091702;28;20630;-73
2022/06/14 02:49:35;;;;;;;0.43;0.43;;;12.00;99.90;12.30;102150.00;;;;5109157;28;20194;-74
2022/06/14 02:52:36;;;;;;;0.50;0.50;;;12.10;99.90;12.40;102143.00;;;;5095268;28;20201;-73
2022/06/14 02:55:36;;;;;;;0.50;0.50;;;11.90;99.90;12.10;102130.00;;;;5105753;28;20200;-73
2022/06/14 02:58:14;;;;;;;0.40;0.40;;;11.70;99.90;12.20;102137.00;;;;5095594;28;20208;-73
2022/06/14 03:01:13;;;;;;;0.57;0.57;;;11.80;99.90;12.20;102136.00;;;;5112127;28;20201;-73
2022/06/14 03:03:57;;;;;;;0.50;0.50;;;11.80;99.90;11.90;102142.00;;;;5112298;28;20214;-73
2022/06/14 03:11:21;;;;;;;0.60;0.60;;;11.60;99.90;12.10;102149.00;;;;5106371;28;20283;-74
2022/06/14 03:14:24;;;;;;;0.50;0.50;;;11.80;99.90;12.30;102150.00;;;;5065857;28;20193;-73
2022/06/14 03:17:07;;;;;;;0.60;0.60;;;11.80;99.90;12.40;102144.00;;;;5111939;28;20179;-73
2022/06/14 03:19:58;;;;;;;0.60;0.60;;;11.90;99.90;11.80;102139.00;;;;5114800;28;20184;-73
2022/06/14 03:23:14;;;;;;;0.60;0.60;;;11.70;99.90;12.10;102143.00;;;;5116271;28;20657;-73
2022/06/14 03:26:13;;;;;;;0.50;0.50;;;11.70;99.90;11.80;102133.00;;;;5115676;28;20177;-73
2022/06/14 03:29:01;;;;;;;0.50;0.50;;;11.50;99.90;12.10;102144.00;;;;5115684;28;20648;-73
2022/06/14 03:31:54;;;;;;;0.57;0.57;;;11.50;99.90;12.20;102092.00;;;;5098357;28;20238;-73
2022/06/14 03:34:58;;;;;;;0.50;0.50;;;11.80;99.90;12.40;102141.00;;;;5098758;28;20635;-74
2022/06/14 03:37:56;;;;;;;0.50;0.50;;;11.80;99.90;11.90;102092.00;;;;5098911;28;20218;-74
2022/06/14 03:40:58;;;;;;;0.40;0.40;;;11.80;99.90;11.70;102141.00;;;;5116686;28;20208;-73
2022/06/14 03:43:51;;;;;;;0.50;0.50;;;11.50;99.90;11.90;102149.00;;;;5099119;28;20195;-73
2022/06/14 03:46:28;;;;;;;0.50;0.50;;;11.70;99.90;12.20;102147.00;;;;5115721;28;20184;-73
2022/06/14 03:49:45;;;;;;;0.50;0.50;;;11.80;99.90;12.10;102148.00;;;;5116667;28;20170;-73
2022/06/14 03:52:46;;;;;;;0.50;0.50;;;11.70;99.90;12.20;102125.00;;;;5100326;28;20251;-74
2022/06/14 03:56:21;;;;;;;0.40;0.40;;;11.80;99.90;12.10;102151.00;;;;5061534;28;20193;-73
2022/06/14 03:58:55;;;;;;;0.50;0.50;;;11.80;99.90;12.60;102107.00;;;;5088564;28;20197;-73
2022/06/14 04:02:03;;;;;;;0.50;0.50;;;12.00;99.90;12.40;102143.00;;;;5116867;28;20185;-73
2022/06/14 04:04:55;;;;;;;0.50;0.50;;;12.00;99.90;12.70;102147.00;;;;5098044;28;20614;-74
2022/06/14 04:07:47;;;;;;;0.50;0.50;;;12.20;99.90;12.40;102151.00;;;;5097703;28;20261;-73
2022/06/14 04:10:55;;;;;;;0.50;0.50;;;12.10;99.90;12.40;102108.00;;;;5067784;28;20194;-74
2022/06/14 04:14:09;;;;;;;0.50;0.50;;;12.00;99.90;12.20;102151.00;;;;5115176;28;20510;-73
2022/06/14 04:17:55;;;;;;;0.50;0.50;;;11.80;99.90;12.70;102161.00;;;;5115482;28;20282;-73
2022/06/14 04:21:04;;;;;;;0.40;0.40;;;12.10;99.90;12.70;102165.00;;;;5016518;28;20182;-73
2022/06/14 04:23:57;;;;;;;0.50;0.50;;;12.20;99.90;13.10;102143.00;;;;5009678;28;20546;-73
2022/06/14 04:26:53;;;;;;;0.40;0.40;;;12.50;99.90;14.40;102171.00;;;;5098010;28;20185;-73
2022/06/14 04:29:35;;;;;;;0.30;0.30;;;13.50;99.90;15.60;102162.00;;;;5114542;28;20178;-73
2022/06/14 04:32:50;;;;;;;0.30;0.30;;;14.50;99.90;16.20;102179.00;;;;5114270;28;20223;-73
2022/06/14 04:35:55;;;;;;;0.30;0.30;;;15.40;99.90;17.80;102193.00;;;;5111169;28;20188;-72
2022/06/14 04:38:44;;;;;;;0.20;0.20;;;16.50;99.90;19.00;102232.00;;;;5114637;28;20209;-73
2022/06/14 04:41:15;;;;;;;0.10;0.10;;;17.50;99.90;19.80;102258.00;;;;5097523;28;20666;-73
2022/06/14 04:44:14;;;;;;;4.43;1.33;;;18.50;99.90;20.60;102230.00;;;;5115739;28;20181;-73
2022/06/14 04:46:46;;;;;;;0.10;0.10;;;19.20;99.90;21.20;102283.00;;;;5115379;28;20185;-73
2022/06/14 04:49:53;;;;;;;0.20;0.20;;;19.80;99.90;21.80;102294.00;;;;5114199;28;20203;-73
2022/06/14 04:52:29;;;;;;;0.30;0.30;;;20.40;99.90;21.80;102308.00;;;;5109767;28;20567;-73
2022/06/14 04:55:10;;;;;;;0.20;0.20;;;20.60;99.90;22.80;102313.00;;;;5114052;28;20238;-74
2022/06/14 04:57:45;;;;;;;0.10;0.10;;;21.10;99.90;23.70;102319.00;;;;5097067;28;20176;-74
2022/06/14 05:00:40;;;;;;;0.10;0.10;;;22.00;99.90;24.50;102323.00;;;;5097527;28;20186;-74
2022/06/14 05:03:30;;;;;;;0.10;0.10;;;22.70;99.90;24.60;102327.00;;;;5097283;28;20279;-74
2022/06/14 05:06:25;;;;;;;0.10;0.10;;;23.30;99.90;25.50;102303.00;;;;5114067;28;20175;-73
2022/06/14 05:09:25;;;;;;;0.10;0.10;;;23.80;99.90;26.70;102337.00;;;;5113897;28;20207;-73
2022/06/14 05:12:29;;;;;;;0.10;0.10;;;24.60;99.90;26.60;102331.00;;;;5096850;28;20212;-74
2022/06/14 05:15:11;;;;;;;0.98;0.98;;;25.20;99.90;27.50;102291.00;;;;5030576;28;20191;-73
2022/06/14 05:18:35;;;;;;;0.10;0.10;;;25.70;99.90;28.80;102297.00;;;;5113367;28;20214;-74
2022/06/14 05:21:42;;;;;;;0.10;0.10;;;26.60;99.90;29.10;102299.00;;;;5113365;28;20193;-73
2022/06/14 05:24:29;;;;;;;0.10;0.10;;;27.40;98.00;29.20;102288.00;;;;5106709;28;20195;-73
2022/06/14 05:27:43;;;;;;;0.10;0.10;;;27.60;96.30;29.70;102300.00;;;;5113599;28;20172;-74
2022/06/14 05:30:20;;;;;;;0.10;0.10;;;27.80;94.60;29.00;102305.00;;;;5114667;28;20540;-74
2022/06/14 05:33:04;;;;;;;0.10;0.10;;;27.50;94.40;29.30;102301.00;;;;5113071;28;20258;-73
2022/06/14 05:35:56;;;;;;;0.10;0.10;;;27.70;93.40;29.40;102302.00;;;;5114118;28;20237;-73
2022/06/14 05:38:45;;;;;;;0.85;0.85;;;27.90;92.90;26.20;102334.00;;;;5114348;28;20651;-73
2022/06/14 05:41:15;;;;;;;0.10;0.10;;;25.70;93.60;23.90;102323.00;;;;5114464;28;20176;-73
2022/06/14 05:44:01;;;;;;;0.40;0.40;;;24.70;94.50;24.60;102333.00;;;;5113499;28;20188;-73
2022/06/14 05:47:03;;;;;;;0.20;0.20;;;24.20;95.20;25.20;102349.00;;;;5113291;28;20176;-73
2022/06/14 05:49:47;;;;;;;0.47;0.47;;;24.20;95.60;24.40;102361.00;;;;5079193;28;20266;-73
2022/06/14 05:52:27;;;;;;;0.28;0.28;;;24.10;95.90;24.20;102328.00;;;;5113101;28;20183;-73
2022/06/14 05:55:16;;;;;;;0.10;0.10;;;23.80;96.30;24.20;102367.00;;;;5095944;28;20589;-73
2022/06/14 05:57:52;;;;;;;0.90;0.90;;;23.20;97.80;24.30;102368.00;;;;5095977;28;20191;-73
2022/06/14 06:00:51;;;;;;;0.20;0.20;;;23.50;97.40;22.40;102368.00;;;;5096623;28;20203;-73
2022/06/14 06:03:38;;;;;;;1.65;1.55;;;23.30;97.60;19.40;102354.00;;;;5095529;28;20685;-72
2022/06/14 06:06:29;;;;;;;0.10;0.10;;;20.30;99.90;22.50;102375.00;;;;5114601;28;20172;-72
2022/06/14 06:09:25;;;;;;;2.30;0.40;;;20.90;99.90;23.70;102374.00;;;;5104320;28;20283;-72
2022/06/14 06:12:17;;;;;;;0.10;0.10;;;22.00;99.90;20.60;102372.00;;;;5095736;28;20211;-72
2022/06/14 06:15:14;;;;;;;0.73;0.70;;;21.50;99.90;19.80;102314.00;;;;5095833;28;20180;-72
2022/06/14 06:18:26;;;;;;;0.52;0.30;;;20.50;99.90;18.70;102333.00;;;;5112532;28;20213;-73
2022/06/14 06:21:33;;;;;;;0.10;0.10;;;20.10;99.90;20.90;102366.00;;;;5112763;28;20198;-72
2022/06/14 06:24:21;;;;;;;0.10;0.10;;;20.20;99.90;22.40;102333.00;;;;5084031;28;20198;-72
2022/06/14 06:27:26;;;;;;;0.10;0.10;;;20.90;99.90;23.60;102375.00;;;;5095796;28;20172;-72
2022/06/14 06:30:22;;;;;;;0.55;0.40;;;22.10;99.90;21.70;102365.00;;;;5112221;28;20186;-72
2022/06/14 06:32:51;;;;;;;0.13;0.13;;;21.90;99.90;22.00;102374.00;;;;5083623;28;20199;-73
2022/06/14 06:35:35;;;;;;;0.30;0.30;;;21.80;99.90;22.00;102377.00;;;;5112464;28;20237;-72
2022/06/14 06:38:56;;;;;;;0.10;0.10;;;21.20;99.90;23.30;102395.00;;;;5112627;28;20201;-72
2022/06/14 06:41:52;;;;;;;0.20;0.20;;;21.60;99.90;24.80;102383.00;;;;5095532;28;20674;-72
2022/06/14 06:44:43;;;;;;;0.32;0.30;;;23.20;99.90;25.10;102387.00;;;;5097275;28;20629;-72
2022/06/14 06:47:40;;;;;;;0.40;0.40;;;23.90;99.90;25.90;102387.00;;;;5112232;28;20745;-72
2022/06/14 06:50:37;;;;;;;0.10;0.10;;;24.30;99.90;23.70;102385.00;;;;5112108;28;20187;-72
2022/06/14 06:53:15;;;;;;;0.10;0.10;;;23.20;99.90;23.30;102385.00;;;;5096058;28;20200;-72
2022/06/14 06:56:13;;;;;;;0.10;0.10;;;23.30;99.90;24.70;102351.00;;;;5116238;28;20184;-72
2022/06/14 06:59:34;;;;;;;0.10;0.10;;;24.10;99.90;21.60;102362.00;;;;5117751;28;20224;-73
2022/06/14 07:02:29;;;;;;;0.77;0.77;;;22.50;99.90;21.30;102383.00;;;;5017626;28;20211;-72
2022/06/14 07:05:09;;;;;;;0.20;0.20;;;22.80;99.90;22.80;102399.00;;;;5018073;28;20808;-72
2022/06/14 07:07:45;;;;;;;0.20;0.20;;;22.10;99.90;23.60;102349.00;;;;5018278;28;20191;-72
2022/06/14 07:10:43;;;;;;;0.20;0.20;;;23.40;99.90;24.60;102371.00;;;;5034438;28;20526;-72
2022/06/14 07:13:38;;;;;;;0.10;0.10;;;24.10;99.90;26.30;102378.00;;;;5018142;28;20191;-72
2022/06/14 07:17:14;;;;;;;0.20;0.17;;;24.90;99.70;28.20;102358.00;;;;5017978;28;20183;-72
2022/06/14 07:20:03;;;;;;;0.10;0.10;;;26.20;98.50;27.40;102351.00;;;;5034310;28;20241;-73
2022/06/14 07:22:57;;;;;;;0.30;0.30;;;26.60;94.70;26.70;102346.00;;;;5018224;28;20215;-72
2022/06/14 07:25:58;;;;;;;0.20;0.20;;;26.40;94.00;27.50;102362.00;;;;5017809;28;20194;-72
2022/06/14 07:28:37;;;;;;;0.10;0.10;;;26.50;93.10;25.90;102301.00;;;;5027524;28;20267;-72
2022/06/14 07:31:36;;;;;;;0.30;0.30;;;26.00;88.90;26.50;102335.00;;;;5098235;28;20188;-72
2022/06/14 07:34:25;;;;;;;0.10;0.10;;;26.20;90.40;25.50;102354.00;;;;5107955;28;20196;-72
2022/06/14 07:37:02;;;;;;;0.10;0.10;;;25.20;91.00;27.50;102356.00;;;;5115794;28;20180;-72
2022/06/14 07:39:52;;;;;;;0.10;0.10;;;26.10;91.50;26.70;102349.00;;;;5115428;28;20180;-72
2022/06/14 07:42:57;;;;;;;0.10;0.10;;;25.90;90.00;24.30;102359.00;;;;5116930;28;20200;-72
2022/06/14 07:45:47;;;;;;;0.20;0.20;;;25.20;90.00;24.10;102358.00;;;;5098241;28;20274;-71
2022/06/14 07:48:33;;;;;;;0.10;0.10;;;23.70;91.70;23.90;102366.00;;;;5115708;28;20174;-71
2022/06/14 07:51:16;;;;;;;0.10;0.10;;;23.30;93.00;24.00;102385.00;;;;5115568;28;20188;-72
2022/06/14 07:53:47;;;;;;;0.10;0.10;;;23.10;94.70;25.20;102369.00;;;;5115458;28;20187;-72
2022/06/14 07:56:35;;;;;;;0.10;0.10;;;24.30;93.80;23.10;102363.00;;;;5115034;28;20180;-71
2022/06/14 07:59:29;;;;;;;0.10;0.10;;;24.10;93.30;24.00;102366.00;;;;5115600;28;20221;-72
2022/06/14 08:02:35;;;;;;;0.30;0.30;;;23.80;93.30;23.40;102375.00;;;;5097889;28;20261;-72
2022/06/14 08:05:19;;;;;;;1.73;1.63;;;23.40;93.10;24.40;102381.00;;;;5097667;28;20192;-72
2022/06/14 08:07:52;;;;;;;0.63;0.63;;;23.90;93.20;26.50;102372.00;;;;5098201;28;20176;-72
2022/06/14 08:10:35;;;;;;;0.10;0.10;;;24.90;92.60;26.90;102354.00;;;;5097954;28;20279;-72
2022/06/14 08:13:10;;;;;;;0.20;0.20;;;25.90;91.60;27.80;102342.00;;;;5098244;28;20601;-72
2022/06/14 08:16:03;;;;;;;0.10;0.10;;;27.00;90.40;27.40;102335.00;;;;5097906;28;20282;-72
2022/06/14 08:18:36;;;;;;;0.10;0.10;;;26.30;90.40;28.40;102325.00;;;;5097858;28;20216;-72
2022/06/14 08:21:16;;;;;;;0.15;0.15;;;27.00;88.90;26.20;102339.00;;;;5114796;28;20226;-72
2022/06/14 08:23:59;;;;;;;0.10;0.10;;;26.00;89.90;26.10;102335.00;;;;5114634;28;20180;-72
2022/06/14 08:26:50;;;;;;;0.20;0.20;;;26.10;88.80;26.40;102337.00;;;;5114644;28;20212;-71
2022/06/14 08:29:26;;;;;;;0.17;0.17;;;26.00;88.00;26.30;102330.00;;;;5097383;28;20687;-72
2022/06/14 08:32:06;;;;;;;0.10;0.10;;;26.40;88.40;26.20;102328.00;;;;5097460;28;20199;-72
2022/06/14 08:35:02;;;;;;;0.10;0.10;;;25.90;88.50;27.90;102322.00;;;;5114934;28;20253;-72
2022/06/14 08:37:42;;;;;;;0.10;0.10;;;26.50;89.00;28.10;102282.00;;;;5115596;28;20639;-72
2022/06/14 08:40:33;;;;;;;0.10;0.10;;;27.70;86.10;27.50;102332.00;;;;5114544;28;20183;-72
2022/06/14 08:43:15;;;;;;;2.50;0.65;;;27.10;86.40;23.80;102324.00;;;;5115508;28;20207;-72
2022/06/14 08:46:03;;;;;;;0.10;0.10;;;26.00;87.10;24.80;102302.00;;;;5097378;28;20195;-72
2022/06/14 08:49:12;;;;;;;0.57;0.50;;;24.60;89.70;23.90;102340.00;;;;5075257;27;20549;-72
2022/06/14 08:52:17;;;;;;;0.10;0.10;;;24.60;89.20;25.00;102353.00;;;;5115337;27;20206;-72
2022/06/14 08:55:29;;;;;;;1.25;0.25;;;24.50;90.50;26.10;102353.00;;;;5114350;28;20176;-72
2022/06/14 08:58:25;;;;;;;0.10;0.10;;;24.90;90.70;23.50;102352.00;;;;5113546;28;20184;-72
2022/06/14 09:00:54;;;;;;;1.15;0.43;;;23.80;91.20;23.40;102350.00;;;;5113801;28;20271;-72
2022/06/14 09:08:01;;;;;;;0.10;0.10;;;24.10;91.80;26.50;102351.00;;;;5112704;28;20219;-72
2022/06/14 09:10:57;;;;;;;0.10;0.10;;;25.10;90.50;26.40;102342.00;;;;5015936;28;20213;-72
2022/06/14 09:13:44;;;;;;;1.08;0.65;;;25.60;90.00;23.40;102322.00;;;;5113706;28;20188;-72
2022/06/14 09:16:19;;;;;;;0.32;0.32;;;25.40;88.20;23.70;102338.00;;;;5112958;28;20183;-72
2022/06/14 09:19:32;;;;;;;0.10;0.10;;;23.80;91.20;25.30;102324.00;;;;5113164;28;20419;-72
2022/06/14 09:22:40;;;;;;;0.10;0.10;;;24.20;91.40;25.60;102335.00;;;;5080350;28;20220;-72
2022/06/14 09:25:28;;;;;;;0.43;0.43;;;25.20;91.30;26.20;102317.00;;;;5077090;28;20184;-72
2022/06/14 09:28:18;;;;;;;1.25;0.85;;;25.50;90.20;25.00;102316.00;;;;5096335;28;20186;-72
2022/06/14 09:31:36;;;;;;;0.10;0.10;;;24.80;90.20;27.30;102313.00;;;;5113569;28;20184;-72
2022/06/14 09:34:28;;;;;;;0.10;0.10;;;25.60;90.40;24.60;102310.00;;;;5111163;28;20212;-72
2022/06/14 09:37:16;;;;;;;0.75;0.75;;;25.60;88.70;24.30;102313.00;;;;5113246;28;20180;-73
2022/06/14 09:40:23;;;;;;;0.45;0.45;;;24.40;90.20;22.70;102312.00;;;;5114657;28;20184;-72
2022/06/14 09:43:29;;;;;;;0.95;0.45;;;23.30;91.00;23.80;102312.00;;;;5061652;28;20212;-72
2022/06/14 09:46:21;;;;;;;0.20;0.20;;;23.60;91.30;24.60;102313.00;;;;5077178;28;20275;-73
2022/06/14 09:49:32;;;;;;;0.10;0.10;;;23.70;91.70;25.80;102300.00;;;;5113170;28;20188;-72
2022/06/14 09:52:22;;;;;;;0.10;0.10;;;24.90;90.70;25.40;102289.00;;;;5113000;28;20233;-72
2022/06/14 09:55:18;;;;;;;0.30;0.30;;;25.00;90.80;21.10;102295.00;;;;5114088;28;20179;-72
2022/06/14 09:58:18;;;;;;;0.10;0.10;;;22.20;92.20;24.20;102299.00;;;;5114077;28;20259;-73
2022/06/14 10:01:08;;;;;;;0.32;0.30;;;23.00;92.80;26.00;102249.00;;;;5114595;28;20172;-72
2022/06/14 10:04:09;;;;;;;0.10;0.10;;;24.80;91.50;25.50;102279.00;;;;5114208;28;20225;-72
2022/06/14 10:07:20;;;;;;;0.13;0.13;;;25.30;91.40;25.50;102252.00;;;;5113928;28;20172;-72
2022/06/14 10:10:07;;;;;;;0.45;0.22;;;25.20;89.60;25.80;102237.00;;;;5114019;28;20164;-72
2022/06/14 10:12:54;;;;;;;0.45;0.45;;;25.40;90.00;23.40;102276.00;;;;5114198;28;20180;-72
2022/06/14 10:15:47;;;;;;;0.10;0.10;;;24.40;89.10;24.20;102272.00;;;;5112733;28;20180;-72
2022/06/14 10:19:03;;;;;;;0.10;0.10;;;24.10;90.20;24.80;102267.00;;;;5112366;28;20181;-72
2022/06/14 10:33:23;;;;;;;0.10;0.10;;;23.90;90.50;23.20;102236.00;;;;5112390;27;1350329;-73
2022/06/14 10:36:24;;;;;;;0.20;0.20;;;23.00;91.80;25.10;102266.00;;;;5132203;28;20252;-74
2022/06/14 10:39:38;;;;;;;0.77;0.38;;;24.00;92.00;25.50;102220.00;;;;5129740;28;20544;-74
2022/06/14 10:42:44;;;;;;;0.47;0.30;;;25.20;91.00;24.90;102244.00;;;;5130320;28;20184;-74
2022/06/14 10:45:30;;;;;;;0.22;0.22;;;25.10;88.90;25.80;102249.00;;;;5113461;28;20239;-74
2022/06/14 10:48:31;;;;;;;0.30;0.30;;;25.00;90.20;24.10;102238.00;;;;5130198;28;20183;-74
2022/06/14 10:51:20;;;;;;;2.00;0.57;;;24.80;89.20;24.70;102245.00;;;;5113031;28;20591;-74
2022/06/14 10:54:16;;;;;;;0.30;0.30;;;24.80;90.40;25.30;102236.00;;;;5090578;27;20555;-74
2022/06/14 10:57:02;;;;;;;0.10;0.10;;;25.00;89.40;25.60;102240.00;;;;5113262;28;20179;-74
2022/06/14 11:00:23;;;;;;;0.50;0.50;;;25.50;90.40;23.70;102239.00;;;;5130025;28;20172;-74
2022/06/14 11:03:35;;;;;;;0.68;0.68;;;25.30;89.80;26.50;102175.00;;;;5080101;28;20195;-74
2022/06/14 11:06:19;;;;;;;1.25;0.45;;;25.60;90.00;26.20;102225.00;;;;5066805;28;20202;-74
2022/06/14 11:09:32;;;;;;;0.20;0.10;;;25.70;89.50;26.40;102214.00;;;;5129662;28;20202;-74
2022/06/14 11:12:10;;;;;;;0.20;0.20;;;26.20;88.40;26.00;102185.00;;;;5130791;27;20207;-74
2022/06/14 11:14:45;;;;;;;0.10;0.10;;;26.00;90.00;26.80;102218.00;;;;5130046;28;20559;-74
2022/06/14 11:17:40;;;;;;;2.85;0.70;;;26.10;89.90;26.20;102204.00;;;;5129781;28;20641;-74
2022/06/14 11:20:43;;;;;;;1.33;1.30;;;26.70;87.90;26.70;102203.00;;;;5129099;28;20188;-74
2022/06/14 11:23:40;;;;;;;0.43;0.43;;;26.50;87.90;26.40;102207.00;;;;5077539;28;20630;-74
2022/06/14 11:26:43;;;;;;;0.17;0.17;;;26.20;88.70;28.10;102193.00;;;;5112162;28;20175;-74
2022/06/14 11:29:45;;;;;;;0.30;0.30;;;27.30;87.60;26.80;102196.00;;;;5129603;28;20179;-71
2022/06/14 11:32:49;;;;;;;4.05;1.75;;;27.50;85.70;24.40;102193.00;;;;5129094;28;20253;-73
2022/06/14 11:35:45;;;;;;;0.77;0.65;;;26.20;84.40;25.00;102166.00;;;;5098232;28;20281;-73
2022/06/14 11:38:39;;;;;;;0.25;0.25;;;25.40;87.40;25.80;102208.00;;;;5128949;28;20182;-73
2022/06/14 11:41:08;;;;;;;0.10;0.10;;;25.40;88.40;28.30;102181.00;;;;5129031;28;20176;-74
2022/06/14 11:43:57;;;;;;;0.15;0.15;;;27.00;86.90;26.70;102154.00;;;;5121411;28;20237;-73
2022/06/14 11:47:16;;;;;;;0.10;0.10;;;26.90;85.00;27.70;102149.00;;;;5115562;28;20184;-74
2022/06/14 11:50:01;;;;;;;0.10;0.10;;;27.80;84.60;26.80;102195.00;;;;5115662;28;20234;-74
2022/06/14 11:53:12;;;;;;;0.10;0.10;;;26.40;86.60;27.10;102185.00;;;;5115074;28;20207;-74
2022/06/14 11:56:11;;;;;;;0.57;0.57;;;26.60;85.00;25.10;102185.00;;;;5116359;28;20172;-74
2022/06/14 11:59:25;;;;;;;0.65;0.50;;;26.10;84.40;26.20;102185.00;;;;5116624;28;20176;-73
2022/06/14 12:02:14;;;;;;;0.52;0.52;;;25.70;86.10;22.80;102194.00;;;;5082928;28;20199;-73
2022/06/14 12:05:16;;;;;;;0.10;0.10;;;23.60;87.00;23.30;102190.00;;;;5116386;28;20196;-73
2022/06/14 12:08:12;;;;;;;0.68;0.68;;;23.20;90.00;25.10;102168.00;;;;5114735;28;20266;-73
2022/06/14 12:11:18;;;;;;;1.95;0.20;;;23.60;90.60;24.40;102150.00;;;;5116650;28;20191;-74
2022/06/14 12:14:22;;;;;;;0.77;0.77;;;24.10;90.10;24.20;102195.00;;;;5094420;28;20192;-73
2022/06/14 12:17:25;;;;;;;0.10;0.10;;;23.80;90.10;24.40;102180.00;;;;5114854;28;20627;-73
2022/06/14 12:20:10;;;;;;;0.45;0.45;;;24.00;89.50;25.40;102151.00;;;;5099384;28;20184;-73
2022/06/14 12:22:40;;;;;;;0.73;0.43;;;24.20;90.60;24.00;102184.00;;;;5097603;28;20661;-73
2022/06/14 12:28:38;;;;;;;0.28;0.28;;;23.50;90.50;22.70;102180.00;;;;5114631;28;20745;-74
2022/06/14 12:31:52;;;;;;;0.10;0.10;;;22.90;90.70;22.60;102157.00;;;;5075809;28;20255;-74
2022/06/14 12:34:44;;;;;;;0.10;0.10;;;22.10;92.20;24.40;102176.00;;;;5097859;28;20220;-74
2022/06/14 12:37:28;;;;;;;0.10;0.10;;;22.90;91.80;24.10;102172.00;;;;5114491;28;20184;-74
2022/06/14 12:40:11;;;;;;;1.80;1.20;;;23.30;91.90;23.80;102129.00;;;;5114623;28;20179;-74
2022/06/14 12:42:49;;;;;;;2.17;0.52;;;23.40;91.40;23.10;102173.00;;;;5097824;28;20199;-73
2022/06/14 12:45:34;;;;;;;0.20;0.20;;;23.10;91.50;22.90;102149.00;;;;5114528;28;20191;-73
2022/06/14 12:48:21;;;;;;;0.10;0.10;;;22.70;91.20;23.50;102139.00;;;;5114339;28;20207;-73
2022/06/14 12:50:57;;;;;;;0.80;0.45;;;22.90;91.50;23.30;102110.00;;;;5113930;28;20205;-73
2022/06/14 12:53:38;;;;;;;0.10;0.10;;;22.70;91.90;23.50;102114.00;;;;5097027;28;20191;-73
2022/06/14 12:56:20;;;;;;;0.20;0.20;;;22.80;92.20;22.90;102143.00;;;;5114267;28;20181;-74
2022/06/14 12:58:57;;;;;;;0.50;0.50;;;22.60;91.70;22.10;102099.00;;;;5097080;28;20224;-73
2022/06/14 13:02:16;;;;;;;0.10;0.10;;;22.20;92.30;23.50;102142.00;;;;5097025;28;20698;-73
2022/06/14 13:05:01;;;;;;;0.35;0.35;;;22.30;92.10;23.50;102100.00;;;;5024956;28;20712;-73
2022/06/14 13:08:13;;;;;;;0.55;0.40;;;22.70;93.30;23.30;102103.00;;;;5096986;28;20214;-73
2022/06/14 13:10:54;;;;;;;0.22;0.22;;;22.90;92.10;24.10;102152.00;;;;5113670;28;20240;-74